This is the latest recevied weather packets stored in our database for station/object N0ZO-13. If no packets are shown the sender has not sent any weather packets the latest 10 day(s).
| Time | Temp. | Humidity | Pressure | Rain* | Wind** | Luminosity | Snow |
|---|---|---|---|---|---|---|---|
| 1777797996 | 8.33° C | 79% | 1014.4 hPa | 0 mm | - | 0 W/m² | - |
| 1777796819 | 8.89° C | 77% | 1014.2 hPa | 0 mm | - | 0 W/m² | - |
| 1777793779 | 10.56° C | 72% | 1013.7 hPa | 0 mm | - | 0 W/m² | - |
| 1777793188 | 10.56° C | 71% | 1013.6 hPa | 0 mm | - | 0 W/m² | - |
| 1777792582 | 11.11° C | 70% | 1013.3 hPa | 0 mm | - | 0 W/m² | - |
| 1777790780 | 12.22° C | 66% | 1013.4 hPa | 0 mm | - | 0 W/m² | - |
| 1777790190 | 12.22° C | 66% | 1013.3 hPa | 0 mm | - | 0 W/m² | - |
| 1777788407 | 11.67° C | 70% | 1013.2 hPa | 0 mm | - | 0 W/m² | - |
| 1777786604 | 11.11° C | 73% | 1013 hPa | 0 mm | - | 0 W/m² | - |
| 1777780029 | 12.22° C | 68% | 1012.3 hPa | 0 mm | - | 0 W/m² | - |
| 1777779383 | 12.22° C | 68% | 1012.2 hPa | 0 mm | - | 0 W/m² | - |
| 1777775778 | 13.33° C | 61% | 1012.1 hPa | 0 mm | - | 0 W/m² | - |
| 1777775188 | 13.33° C | 60% | 1012.3 hPa | 0 mm | - | 0 W/m² | - |
| 1777771587 | 16.11° C | 50% | 1011 hPa | 0 mm | - | 0 W/m² | - |
| 1777769182 | 16.67° C | 48% | 1010.6 hPa | 0 mm | - | 0 W/m² | - |
| 1777767382 | 17.78° C | 47% | 1010.4 hPa | 0 mm | - | 0 W/m² | - |
| 1777765581 | 18.89° C | 43% | 1010 hPa | 0 mm | - | 0 W/m² | - |
| 1777762586 | 19.44° C | 42% | 1009.6 hPa | 0 mm | - | 10 W/m² | - |
| 1777761981 | 20° C | 40% | 1009.7 hPa | 0 mm | - | 10 W/m² | - |
| 1777758986 | 20.56° C | 40% | 1009.5 hPa | 0 mm | - | 54 W/m² | - |
| 1777757789 | 20.56° C | 40% | 1009.5 hPa | 0 mm | - | 100 W/m² | - |
| 1777752409 | 20.56° C | 43% | 1009.7 hPa | 0 mm | - | 140 W/m² | - |
| 1777750589 | 20° C | 40% | 1009.8 hPa | 0 mm | - | 184 W/m² | - |
| 1777749984 | 20° C | 41% | 1009.8 hPa | 0 mm | - | 184 W/m² | - |
| 1777748788 | 20° C | 44% | 1010.1 hPa | 0 mm | - | 184 W/m² | - |
* Rain latest hour (hover to see other rain measurements)
** Current wind speed in m/s (hover to see current wind gust speed)